Time;durP1;ratioP1;P1;durP2;ratioP2;P2;SDS_P1;SDS_P2;PMS_P1;PMS_P2;Temp;Humidity;BMP_temperature;BMP_pressure;BME280_temperature;BME280_humidity;BME280_pressure;Samples;Min_cycle;Max_cycle;Signal;HPM_P1;HPM_P2
2021/01/13 00:01:12;;;;;;;12.10;5.75;;;6.20;99.90;;;;;;4722405;30;20028;-78
2021/01/13 00:03:38;;;;;;;10.88;5.45;;;6.20;99.90;;;;;;4717613;30;20056;-78
2021/01/13 00:06:04;;;;;;;12.88;5.55;;;6.20;99.90;;;;;;4723133;30;20407;-81
2021/01/13 00:08:30;;;;;;;12.48;5.40;;;6.20;99.90;;;;;;4724489;30;20051;-80
2021/01/13 00:10:56;;;;;;;8.63;5.15;;;6.20;99.90;;;;;;4706982;30;20060;-80
2021/01/13 00:13:22;;;;;;;12.30;5.45;;;6.20;99.90;;;;;;4731154;30;20141;-80
2021/01/13 00:15:48;;;;;;;10.48;5.97;;;6.20;99.90;;;;;;4735564;30;20077;-80
2021/01/13 00:18:14;;;;;;;8.50;4.93;;;6.20;99.90;;;;;;4739247;30;20127;-81
2021/01/13 00:20:40;;;;;;;8.95;4.22;;;6.30;99.90;;;;;;4739936;30;20040;-81
2021/01/13 00:23:06;;;;;;;6.95;4.07;;;6.20;99.90;;;;;;4743187;30;20166;-82
2021/01/13 00:25:33;;;;;;;10.98;4.82;;;6.30;99.90;;;;;;4737945;30;20044;-80
2021/01/13 00:27:59;;;;;;;8.07;4.47;;;6.30;99.90;;;;;;4732461;30;20127;-81
2021/01/13 00:30:25;;;;;;;12.30;4.72;;;6.30;99.90;;;;;;4729558;30;20053;-81
2021/01/13 00:32:51;;;;;;;9.23;4.05;;;6.40;99.90;;;;;;4737272;30;20036;-81
2021/01/13 00:35:18;;;;;;;7.20;3.33;;;6.40;99.90;;;;;;4745352;30;20081;-80
2021/01/13 00:37:44;;;;;;;5.32;3.47;;;6.40;99.90;;;;;;4732217;30;20047;-81
2021/01/13 00:40:11;;;;;;;7.32;4.20;;;6.40;99.90;;;;;;4750662;30;20048;-81
2021/01/13 00:42:48;;;;;;;10.43;4.68;;;6.50;99.90;;;;;;4728965;30;20048;-81
2021/01/13 00:45:17;;;;;;;8.07;4.43;;;6.50;99.90;;;;;;4727629;30;20090;-82
2021/01/13 00:47:43;;;;;;;8.75;4.53;;;6.50;99.90;;;;;;4742548;30;20040;-82
2021/01/13 00:50:11;;;;;;;10.18;4.82;;;6.50;99.90;;;;;;4717913;30;20037;-82
2021/01/13 00:52:37;;;;;;;8.20;4.50;;;6.50;99.90;;;;;;4715185;30;20039;-82
2021/01/13 00:55:04;;;;;;;9.10;4.78;;;6.50;99.90;;;;;;4719280;30;20032;-81
2021/01/13 00:57:30;;;;;;;7.50;4.45;;;6.40;99.90;;;;;;4717088;30;20036;-82
2021/01/13 00:59:56;;;;;;;11.50;5.60;;;6.40;99.90;;;;;;4732974;30;20151;-82
2021/01/13 01:02:22;;;;;;;9.00;4.85;;;6.50;99.90;;;;;;4711863;30;20112;-82
2021/01/13 01:04:48;;;;;;;13.80;4.18;;;6.40;99.90;;;;;;4742851;30;20041;-82
2021/01/13 01:07:14;;;;;;;7.70;3.88;;;6.40;99.90;;;;;;4718914;30;20044;-83
2021/01/13 01:09:40;;;;;;;8.13;4.13;;;6.30;99.90;;;;;;4747265;30;20048;-81
2021/01/13 01:12:07;;;;;;;8.30;4.40;;;6.20;99.90;;;;;;4732319;30;20376;-82
2021/01/13 01:14:33;;;;;;;9.95;5.22;;;6.20;99.90;;;;;;4721434;30;20033;-82
2021/01/13 01:16:59;;;;;;;7.63;4.47;;;6.10;99.90;;;;;;4720072;30;20521;-81
2021/01/13 01:19:25;;;;;;;7.90;4.10;;;6.10;99.90;;;;;;4706942;30;20113;-82
2021/01/13 01:21:51;;;;;;;12.27;4.47;;;6.10;99.90;;;;;;4731192;30;20114;-82
2021/01/13 01:24:17;;;;;;;9.88;4.65;;;6.10;99.90;;;;;;4732730;30;20045;-81
2021/01/13 01:26:47;;;;;;;8.65;4.55;;;6.10;99.90;;;;;;4730679;30;20499;-81
2021/01/13 01:29:14;;;;;;;9.77;3.92;;;6.20;99.90;;;;;;4716295;30;20029;-81
2021/01/13 01:31:40;;;;;;;8.38;5.03;;;6.20;99.90;;;;;;4721976;30;20060;-81
2021/01/13 01:34:07;;;;;;;6.97;3.65;;;6.20;99.90;;;;;;4723924;30;20058;-82
2021/01/13 01:36:33;;;;;;;9.43;4.53;;;6.30;99.90;;;;;;4733863;30;20047;-82
2021/01/13 01:38:59;;;;;;;9.43;4.50;;;6.30;99.90;;;;;;4723709;30;20033;-82
2021/01/13 01:41:26;;;;;;;8.60;4.10;;;6.30;99.90;;;;;;4732788;30;20113;-82
2021/01/13 01:43:52;;;;;;;8.48;3.17;;;6.30;99.90;;;;;;4731901;30;20067;-82
2021/01/13 01:46:19;;;;;;;8.70;4.55;;;6.40;99.90;;;;;;4724634;30;20060;-81
2021/01/13 01:48:58;;;;;;;9.25;3.95;;;6.40;99.90;;;;;;4732376;30;20048;-81
2021/01/13 01:51:30;;;;;;;8.15;3.47;;;6.50;99.90;;;;;;4739151;30;20046;-81
2021/01/13 01:54:07;;;;;;;6.85;3.25;;;6.50;99.90;;;;;;4714739;30;20040;-82
2021/01/13 01:56:43;;;;;;;8.73;3.90;;;6.60;99.90;;;;;;4738674;30;20037;-80
2021/01/13 01:59:12;;;;;;;6.57;4.13;;;6.60;99.90;;;;;;4746694;30;20036;-82
2021/01/13 02:01:40;;;;;;;12.07;4.47;;;6.60;99.90;;;;;;4732897;30;20032;-82
2021/01/13 02:04:12;;;;;;;14.95;4.72;;;6.60;99.90;;;;;;4731154;30;20052;-82
2021/01/13 02:06:59;;;;;;;7.90;4.05;;;6.60;99.90;;;;;;4722484;30;20065;-81
2021/01/13 02:09:29;;;;;;;12.93;4.43;;;6.70;99.90;;;;;;4732780;30;20116;-81
2021/01/13 02:11:58;;;;;;;7.50;3.42;;;6.70;99.90;;;;;;4729267;30;20025;-81
2021/01/13 02:14:25;;;;;;;5.72;3.53;;;6.70;99.90;;;;;;4731284;30;20097;-81
2021/01/13 02:16:57;;;;;;;4.85;3.08;;;6.70;99.90;;;;;;4725980;30;20037;-82
2021/01/13 02:19:41;;;;;;;8.52;3.17;;;6.80;99.90;;;;;;4731169;30;20074;-81
2021/01/13 02:22:12;;;;;;;6.13;2.55;;;6.80;99.90;;;;;;4730471;30;20419;-82
2021/01/13 02:24:59;;;;;;;8.45;2.55;;;6.80;99.90;;;;;;4731242;30;20044;-81
2021/01/13 02:27:31;;;;;;;4.28;2.40;;;6.90;99.90;;;;;;4731715;30;20119;-79
2021/01/13 02:30:02;;;;;;;5.85;2.85;;;7.00;99.90;;;;;;4731111;30;20127;-81
2021/01/13 02:32:42;;;;;;;6.97;2.42;;;7.10;99.90;;;;;;4716455;30;20088;-81
2021/01/13 02:35:19;;;;;;;4.57;3.05;;;7.00;99.90;;;;;;4731135;30;20470;-81
2021/01/13 02:38:13;;;;;;;4.63;2.67;;;7.00;99.90;;;;;;4731651;30;20048;-81
2021/01/13 02:40:48;;;;;;;4.78;2.58;;;7.00;99.90;;;;;;4732079;30;20036;-82
2021/01/13 02:43:18;;;;;;;4.03;2.33;;;7.00;99.90;;;;;;4730935;30;20090;-81
2021/01/13 02:45:46;;;;;;;4.38;2.80;;;7.00;99.90;;;;;;4725086;30;20186;-82
2021/01/13 02:48:23;;;;;;;5.38;2.95;;;6.90;99.90;;;;;;4730411;30;20563;-82
2021/01/13 02:50:58;;;;;;;4.30;2.15;;;6.90;99.90;;;;;;4730739;30;20517;-82
2021/01/13 02:53:30;;;;;;;5.80;3.08;;;6.90;99.90;;;;;;4732342;30;20068;-82
2021/01/13 02:55:56;;;;;;;6.10;3.13;;;6.90;99.90;;;;;;4729623;30;20064;-81
2021/01/13 02:58:36;;;;;;;7.68;2.95;;;6.90;99.90;;;;;;4731349;30;20499;-81
2021/01/13 03:01:07;;;;;;;6.47;3.10;;;6.80;99.90;;;;;;4732377;30;20491;-82
2021/01/13 03:03:35;;;;;;;6.53;2.97;;;6.70;99.90;;;;;;4730371;30;20489;-82
2021/01/13 03:06:10;;;;;;;6.13;3.35;;;6.70;99.90;;;;;;4730796;30;20039;-82
2021/01/13 03:08:48;;;;;;;8.18;3.72;;;6.60;99.90;;;;;;4729980;30;20061;-82
2021/01/13 03:11:21;;;;;;;6.70;3.00;;;6.50;99.90;;;;;;4731054;30;20039;-82
2021/01/13 03:13:48;;;;;;;4.60;2.30;;;6.40;99.90;;;;;;4713349;30;20514;-82
2021/01/13 03:16:15;;;;;;;6.80;3.70;;;6.40;99.90;;;;;;4715430;30;20028;-82
2021/01/13 03:19:01;;;;;;;5.53;3.30;;;6.40;99.90;;;;;;4716118;30;20041;-83
2021/01/13 03:21:39;;;;;;;6.40;3.17;;;6.30;99.90;;;;;;4718534;30;20075;-80
2021/01/13 03:24:15;;;;;;;4.82;2.78;;;6.30;99.90;;;;;;4730436;30;20048;-83
2021/01/13 03:26:48;;;;;;;7.70;4.00;;;6.20;99.90;;;;;;4715310;30;20036;-80
2021/01/13 03:29:18;;;;;;;;;;;6.20;99.90;;;;;;4730456;30;20565;-82
2021/01/13 03:32:03;;;;;;;7.15;3.10;;;6.20;99.90;;;;;;4728772;30;19929;-82
2021/01/13 03:34:31;;;;;;;7.00;3.28;;;6.30;99.90;;;;;;4729897;30;20593;-82
2021/01/13 03:37:10;;;;;;;8.82;4.15;;;6.20;99.90;;;;;;4725579;30;20052;-82
2021/01/13 03:39:39;;;;;;;6.20;2.90;;;6.20;99.90;;;;;;4705964;30;20065;-81
2021/01/13 03:42:17;;;;;;;6.72;2.85;;;6.20;99.90;;;;;;4738815;30;20079;-82
2021/01/13 03:44:45;;;;;;;7.63;3.50;;;6.20;99.90;;;;;;4722443;30;20513;-82
2021/01/13 03:47:29;;;;;;;5.88;3.33;;;6.10;99.90;;;;;;4751849;30;20495;-81
2021/01/13 03:50:09;;;;;;;8.35;3.22;;;6.10;99.90;;;;;;4731565;30;20081;-83
2021/01/13 03:52:54;;;;;;;6.68;2.80;;;6.20;99.90;;;;;;4735384;30;20036;-82
2021/01/13 03:55:23;;;;;;;5.05;3.33;;;6.10;99.90;;;;;;4715375;30;20047;-81
2021/01/13 03:57:52;;;;;;;5.10;3.05;;;6.10;99.90;;;;;;4716434;30;20037;-82
2021/01/13 04:00:21;;;;;;;7.55;3.28;;;6.20;99.90;;;;;;4740043;30;20475;-80
2021/01/13 04:03:14;;;;;;;5.55;3.28;;;6.20;99.90;;;;;;4730430;30;20036;-81
2021/01/13 04:05:56;;;;;;;6.22;3.67;;;6.20;99.90;;;;;;4730866;30;20466;-82
2021/01/13 04:08:24;;;;;;;12.43;3.33;;;6.30;99.90;;;;;;4728055;30;20067;-82
2021/01/13 04:10:50;;;;;;;7.68;3.17;;;6.30;99.90;;;;;;4706273;30;20045;-82
2021/01/13 04:13:30;;;;;;;6.95;2.95;;;6.40;99.90;;;;;;4731380;30;20045;-82
2021/01/13 04:16:00;;;;;;;4.32;2.58;;;6.40;99.90;;;;;;4732481;30;20110;-83
2021/01/13 04:18:26;;;;;;;10.07;4.53;;;6.40;99.90;;;;;;4734974;30;20040;-81
2021/01/13 04:20:52;;;;;;;6.25;3.65;;;6.40;99.90;;;;;;4731292;30;20029;-83
2021/01/13 04:23:18;;;;;;;8.35;3.00;;;6.50;99.90;;;;;;4744200;30;20458;-82
2021/01/13 04:25:45;;;;;;;5.88;2.95;;;6.50;99.90;;;;;;4751999;30;20040;-81
2021/01/13 04:28:11;;;;;;;6.03;3.63;;;6.50;99.90;;;;;;4733288;30;20123;-82
2021/01/13 04:30:39;;;;;;;7.85;3.90;;;6.40;99.90;;;;;;4733180;30;20048;-82
2021/01/13 04:33:06;;;;;;;5.00;3.20;;;6.30;99.90;;;;;;4734095;30;20226;-82
2021/01/13 04:35:32;;;;;;;6.93;3.85;;;6.30;99.90;;;;;;4732657;30;20033;-83
2021/01/13 04:37:59;;;;;;;7.13;3.50;;;6.30;99.90;;;;;;4733191;30;20036;-83
2021/01/13 04:40:33;;;;;;;4.95;2.95;;;6.20;99.90;;;;;;4731421;30;20052;-82
2021/01/13 04:43:03;;;;;;;5.47;3.35;;;6.30;99.90;;;;;;4721154;30;20043;-81
2021/01/13 04:45:44;;;;;;;7.75;3.55;;;6.30;99.90;;;;;;4730394;30;20037;-80
2021/01/13 04:48:13;;;;;;;5.70;3.58;;;6.30;99.90;;;;;;4733598;30;20053;-82
2021/01/13 04:50:44;;;;;;;7.70;4.20;;;6.40;99.90;;;;;;4733726;30;20514;-81
2021/01/13 04:53:20;;;;;;;5.57;3.50;;;6.40;99.90;;;;;;4734601;30;20036;-81
2021/01/13 04:55:54;;;;;;;7.70;3.60;;;6.50;99.90;;;;;;4746560;30;20435;-82
2021/01/13 04:58:19;;;;;;;;;;;6.50;99.90;;;;;;4724400;30;20056;-82
2021/01/13 05:01:25;;;;;;;11.87;4.23;;;6.50;99.90;;;;;;4717982;30;19933;-81
2021/01/13 05:04:07;;;;;;;5.95;3.28;;;6.50;99.90;;;;;;4737896;30;20067;-82
2021/01/13 05:07:09;;;;;;;6.30;3.00;;;6.60;99.90;;;;;;4748910;30;20040;-81
2021/01/13 05:09:50;;;;;;;6.03;3.22;;;6.60;99.90;;;;;;4720485;30;20037;-82
2021/01/13 05:12:17;;;;;;;9.45;3.97;;;6.60;99.90;;;;;;4733709;30;20027;-83
2021/01/13 05:14:45;;;;;;;5.50;3.22;;;6.60;99.90;;;;;;4734020;30;20037;-83
2021/01/13 05:17:35;;;;;;;11.57;3.85;;;6.60;99.90;;;;;;4731719;30;20094;-83
2021/01/13 05:20:16;;;;;;;8.98;4.32;;;6.60;99.90;;;;;;4724803;30;20399;-82
2021/01/13 05:22:44;;;;;;;6.80;3.83;;;6.60;99.90;;;;;;4731906;30;20044;-83
2021/01/13 05:25:11;;;;;;;6.82;3.63;;;6.60;99.90;;;;;;4741535;30;20470;-83
2021/01/13 05:27:46;;;;;;;6.28;3.53;;;6.60;99.90;;;;;;4741840;30;20055;-82
2021/01/13 05:30:13;;;;;;;7.82;3.30;;;6.60;99.90;;;;;;4732424;30;20319;-83
2021/01/13 05:32:42;;;;;;;7.97;3.95;;;6.60;99.90;;;;;;4731436;30;20048;-83
2021/01/13 05:35:09;;;;;;;7.82;4.05;;;6.60;99.90;;;;;;4738765;30;20628;-83
2021/01/13 05:38:04;;;;;;;7.60;4.18;;;6.60;99.90;;;;;;4751118;30;20113;-82
2021/01/13 05:40:30;;;;;;;7.38;3.65;;;6.60;99.90;;;;;;4719443;30;20514;-83
2021/01/13 05:43:01;;;;;;;6.70;3.70;;;6.50;99.90;;;;;;4716138;30;20112;-82
2021/01/13 05:45:29;;;;;;;8.40;4.50;;;6.40;99.90;;;;;;4723494;30;20033;-83
2021/01/13 05:48:02;;;;;;;9.48;4.47;;;6.20;99.90;;;;;;4732341;30;20496;-80
2021/01/13 05:50:29;;;;;;;9.43;5.25;;;6.20;99.90;;;;;;4732457;30;20372;-82
2021/01/13 05:52:56;;;;;;;7.13;4.25;;;6.10;99.90;;;;;;4744395;30;20033;-83
2021/01/13 05:55:23;;;;;;;6.38;3.80;;;6.00;99.90;;;;;;4731398;30;20490;-83
2021/01/13 05:58:00;;;;;;;11.20;4.90;;;5.90;99.90;;;;;;4732262;30;20043;-82
2021/01/13 06:00:28;;;;;;;10.10;5.13;;;5.70;99.90;;;;;;4725792;30;20086;-80
2021/01/13 06:03:03;;;;;;;7.68;3.65;;;5.70;99.90;;;;;;4714592;30;20053;-83
2021/01/13 06:05:32;;;;;;;7.70;3.40;;;5.60;99.90;;;;;;4727406;30;20086;-83
2021/01/13 06:08:00;;;;;;;8.82;4.35;;;5.60;99.90;;;;;;4728333;30;20518;-83
2021/01/13 06:10:32;;;;;;;8.27;3.80;;;5.60;99.90;;;;;;4726403;30;20422;-81
2021/01/13 06:13:04;;;;;;;6.53;3.50;;;5.60;99.90;;;;;;4732519;30;20094;-82
2021/01/13 06:15:30;;;;;;;6.72;3.90;;;5.70;99.90;;;;;;4718681;30;20557;-82
2021/01/13 06:17:58;;;;;;;6.65;3.45;;;5.70;99.90;;;;;;4733690;30;20057;-83
2021/01/13 06:20:30;;;;;;;9.07;4.20;;;5.70;99.90;;;;;;4732120;30;20810;-82
2021/01/13 06:22:59;;;;;;;8.05;4.47;;;5.80;99.90;;;;;;4731370;30;20069;-83
2021/01/13 06:25:27;;;;;;;8.85;4.20;;;5.80;99.90;;;;;;4722560;30;20183;-82
2021/01/13 06:28:23;;;;;;;9.68;4.97;;;5.70;99.90;;;;;;4731866;30;20065;-83
2021/01/13 06:31:00;;;;;;;12.32;5.60;;;5.80;99.90;;;;;;4732579;30;20071;-83
2021/01/13 06:33:50;;;;;;;9.98;4.20;;;5.80;99.90;;;;;;4730781;30;20029;-83
2021/01/13 06:36:42;;;;;;;8.85;4.55;;;5.80;99.90;;;;;;4715942;30;20157;-82
2021/01/13 06:39:25;;;;;;;7.90;4.13;;;5.90;99.90;;;;;;4737901;30;20410;-79
2021/01/13 06:41:55;;;;;;;7.22;4.10;;;5.90;99.90;;;;;;4749778;30;20032;-81
2021/01/13 06:44:21;;;;;;;6.55;3.70;;;5.90;99.90;;;;;;4732636;30;20055;-82
2021/01/13 06:46:48;;;;;;;8.20;4.18;;;5.90;99.90;;;;;;4730816;30;20029;-81
2021/01/13 06:49:16;;;;;;;9.32;4.97;;;5.90;99.90;;;;;;4730783;30;20040;-82
2021/01/13 06:51:44;;;;;;;8.43;4.30;;;5.90;99.90;;;;;;4731506;30;20067;-81
2021/01/13 06:54:13;;;;;;;8.52;3.65;;;5.90;99.90;;;;;;4741241;30;20040;-83
2021/01/13 06:56:51;;;;;;;10.15;4.97;;;6.00;99.90;;;;;;4737656;30;20258;-83
2021/01/13 06:59:18;;;;;;;10.48;4.15;;;6.00;99.90;;;;;;4725431;30;20156;-82
2021/01/13 07:01:55;;;;;;;8.88;4.00;;;6.00;99.90;;;;;;4723974;30;20047;-82
2021/01/13 07:04:23;;;;;;;11.43;4.38;;;6.00;99.90;;;;;;4719099;30;20567;-82
2021/01/13 07:07:07;;;;;;;14.30;5.35;;;6.10;99.90;;;;;;4738035;30;20078;-82
2021/01/13 07:09:36;;;;;;;10.52;5.15;;;6.20;99.90;;;;;;4732018;30;20056;-81
2021/01/13 07:12:10;;;;;;;7.00;4.28;;;6.20;99.90;;;;;;4725364;30;20721;-82
2021/01/13 07:14:42;;;;;;;8.13;3.90;;;6.30;99.90;;;;;;4730748;30;20052;-83
2021/01/13 07:17:13;;;;;;;9.73;5.05;;;6.30;99.90;;;;;;4716580;30;20403;-83
2021/01/13 07:19:44;;;;;;;6.15;3.75;;;6.40;99.90;;;;;;4713479;30;20049;-82
2021/01/13 07:22:11;;;;;;;6.18;3.67;;;6.50;99.90;;;;;;4720115;30;20099;-82
2021/01/13 07:24:37;;;;;;;6.90;3.30;;;6.60;99.90;;;;;;4715029;30;20072;-81
2021/01/13 07:27:03;;;;;;;6.05;3.40;;;6.70;99.90;;;;;;4726422;30;20067;-81
2021/01/13 07:29:29;;;;;;;7.43;3.80;;;6.80;99.90;;;;;;4736775;30;20028;-82
2021/01/13 07:31:57;;;;;;;7.00;3.85;;;7.00;99.90;;;;;;4741554;30;20058;-82
2021/01/13 07:34:37;;;;;;;13.23;3.70;;;7.00;99.90;;;;;;4736942;30;20047;-83
2021/01/13 07:37:11;;;;;;;7.38;4.15;;;7.10;99.90;;;;;;4722508;30;20040;-83
2021/01/13 07:39:52;;;;;;;7.68;3.97;;;7.20;99.90;;;;;;4725729;30;20660;-82
2021/01/13 07:42:37;;;;;;;7.07;3.10;;;7.30;99.90;;;;;;4728249;30;20058;-83
2021/01/13 07:45:06;;;;;;;7.50;3.88;;;7.40;99.90;;;;;;4729620;30;20037;-83
2021/01/13 07:48:14;;;;;;;7.22;3.83;;;7.50;99.90;;;;;;4731203;30;20112;-83
2021/01/13 07:50:42;;;;;;;8.40;4.70;;;7.60;99.90;;;;;;4712940;30;20045;-84
2021/01/13 07:53:22;;;;;;;8.38;4.32;;;7.80;99.90;;;;;;4734937;30;20034;-80
2021/01/13 07:55:57;;;;;;;7.63;4.28;;;7.90;99.90;;;;;;4725038;30;20109;-81
2021/01/13 07:58:28;;;;;;;7.30;4.32;;;8.00;99.90;;;;;;4716165;30;20033;-85
2021/01/13 08:01:26;;;;;;;7.60;4.43;;;8.10;99.90;;;;;;4729822;30;20134;-81
2021/01/13 08:04:30;;;;;;;9.32;4.65;;;8.10;99.90;;;;;;4729742;30;20660;-84
2021/01/13 08:06:58;;;;;;;7.65;3.90;;;8.20;99.90;;;;;;4726883;30;20029;-81
2021/01/13 08:09:25;;;;;;;7.90;4.28;;;8.20;99.90;;;;;;4722634;30;20048;-84
2021/01/13 08:12:09;;;;;;;16.48;8.48;;;8.30;99.90;;;;;;4730246;30;20210;-84
2021/01/13 08:15:02;;;;;;;10.25;5.28;;;8.30;99.90;;;;;;4743817;30;20045;-85
2021/01/13 08:18:14;;;;;;;10.57;5.20;;;8.40;99.90;;;;;;4707409;30;20395;-85
2021/01/13 08:21:11;;;;;;;7.78;4.32;;;8.40;99.90;;;;;;4683418;30;20052;-82
2021/01/13 08:23:41;;;;;;;8.52;5.25;;;8.40;99.90;;;;;;4725451;30;20075;-82
2021/01/13 08:26:09;;;;;;;7.25;4.70;;;8.50;99.90;;;;;;4714442;30;20029;-83
2021/01/13 08:28:43;;;;;;;8.07;4.45;;;8.50;99.90;;;;;;4724643;30;20041;-83
2021/01/13 08:31:10;;;;;;;8.25;4.35;;;8.50;99.90;;;;;;4708844;30;20144;-83
2021/01/13 08:33:39;;;;;;;6.18;4.03;;;8.60;99.90;;;;;;4719267;30;20040;-82
2021/01/13 08:36:11;;;;;;;7.70;4.07;;;8.70;99.90;;;;;;4707970;30;20059;-82
2021/01/13 08:38:38;;;;;;;8.52;4.07;;;8.70;99.90;;;;;;4707897;30;20033;-83
2021/01/13 08:41:23;;;;;;;5.20;3.60;;;8.80;99.90;;;;;;4713314;30;20032;-82
2021/01/13 08:44:01;;;;;;;6.10;4.47;;;8.90;99.90;;;;;;4726066;30;20059;-83
2021/01/13 08:46:44;;;;;;;6.80;3.40;;;8.90;99.90;;;;;;4725791;30;20041;-82
2021/01/13 08:49:18;;;;;;;12.40;6.28;;;9.00;99.90;;;;;;4718960;30;20037;-82
2021/01/13 08:52:23;;;;;;;12.77;7.05;;;9.10;99.90;;;;;;4701558;30;20095;-82
2021/01/13 08:54:55;;;;;;;12.90;6.78;;;9.20;99.90;;;;;;4731009;30;20075;-81
2021/01/13 08:57:25;;;;;;;29.85;17.30;;;9.20;99.90;;;;;;4718783;30;20041;-82
2021/01/13 08:59:52;;;;;;;16.05;8.98;;;9.30;99.90;;;;;;4721628;30;20127;-82
2021/01/13 09:02:20;;;;;;;16.63;11.35;;;9.40;99.90;;;;;;4707589;30;20042;-81
2021/01/13 09:04:51;;;;;;;21.67;13.48;;;9.50;99.90;;;;;;4709420;30;20149;-82
2021/01/13 09:07:21;;;;;;;9.60;4.85;;;9.50;99.90;;;;;;4723488;30;20128;-82
2021/01/13 09:10:00;;;;;;;8.63;5.05;;;9.60;99.90;;;;;;4728091;30;20048;-82
2021/01/13 09:12:30;;;;;;;7.97;4.85;;;9.70;99.90;;;;;;4720112;30;20041;-82
2021/01/13 09:15:08;;;;;;;6.90;3.80;;;9.70;99.90;;;;;;4723357;30;20044;-83
2021/01/13 09:17:38;;;;;;;9.07;5.70;;;9.70;99.90;;;;;;4725174;30;20032;-81
2021/01/13 09:20:11;;;;;;;9.60;4.05;;;9.80;99.90;;;;;;4710319;30;20039;-81
2021/01/13 09:22:53;;;;;;;9.57;4.82;;;9.90;99.90;;;;;;4709865;30;20046;-82
2021/01/13 09:25:25;;;;;;;8.52;4.65;;;10.00;99.90;;;;;;4711018;30;20032;-82
2021/01/13 09:39:29;;;;;;;9.55;4.28;;;10.50;99.90;;;;;;4724234;30;20110;-81
2021/01/13 09:42:05;;;;;;;10.40;3.70;;;10.60;99.90;;;;;;4728381;30;20380;-81
2021/01/13 09:48:39;;;;;;;6.45;3.92;;;10.90;99.90;;;;;;4722890;30;20415;-81
2021/01/13 09:51:10;;;;;;;7.82;3.75;;;11.00;99.90;;;;;;4717835;30;20122;-81
2021/01/13 09:53:50;;;;;;;6.78;3.88;;;10.90;99.90;;;;;;4723071;30;20399;-81
2021/01/13 09:56:17;;;;;;;7.25;4.10;;;10.90;99.90;;;;;;4708527;30;20169;-81
2021/01/13 09:58:44;;;;;;;6.22;3.28;;;10.90;99.90;;;;;;4726770;30;20475;-82
2021/01/13 10:01:13;;;;;;;8.00;3.67;;;10.90;99.90;;;;;;4714325;30;20040;-81
2021/01/13 10:03:41;;;;;;;6.63;4.15;;;11.00;99.90;;;;;;4709350;30;20136;-83
2021/01/13 10:06:19;;;;;;;7.90;4.15;;;11.10;99.90;;;;;;4727289;30;20032;-82
2021/01/13 10:08:47;;;;;;;6.72;3.22;;;11.20;99.90;;;;;;4722099;30;20041;-81
2021/01/13 10:11:15;;;;;;;7.00;3.40;;;11.20;99.90;;;;;;4709473;30;20032;-82
2021/01/13 10:13:42;;;;;;;5.72;3.15;;;11.40;99.90;;;;;;4706538;30;20491;-82
2021/01/13 10:16:11;;;;;;;5.88;3.47;;;11.60;99.90;;;;;;4723313;30;20088;-82
2021/01/13 10:19:01;;;;;;;5.63;3.10;;;11.70;99.90;;;;;;4712594;30;20483;-82
2021/01/13 10:21:42;;;;;;;6.68;3.67;;;11.60;99.90;;;;;;4722812;30;20085;-82
2021/01/13 10:24:13;;;;;;;5.80;3.38;;;11.80;99.90;;;;;;4723236;30;20045;-81
2021/01/13 10:26:40;;;;;;;11.90;4.85;;;11.90;99.90;;;;;;4724212;30;20466;-82
2021/01/13 10:29:08;;;;;;;8.75;3.83;;;12.10;99.90;;;;;;4721722;30;20111;-81
2021/01/13 10:31:35;;;;;;;11.13;4.07;;;12.10;99.90;;;;;;4742039;30;20266;-85
2021/01/13 10:34:02;;;;;;;5.93;3.67;;;12.20;99.90;;;;;;4706231;30;20037;-83
2021/01/13 10:36:34;;;;;;;5.78;3.42;;;12.20;99.90;;;;;;4713077;30;20031;-83
2021/01/13 10:39:22;;;;;;;7.75;2.58;;;12.30;99.90;;;;;;4719304;30;20406;-83
2021/01/13 10:42:00;;;;;;;6.93;3.38;;;12.40;99.90;;;;;;4720707;30;20072;-82
2021/01/13 10:44:28;;;;;;;5.28;3.20;;;12.50;99.90;;;;;;4724608;30;20402;-83
2021/01/13 10:47:11;;;;;;;7.78;3.15;;;12.50;99.90;;;;;;4713601;30;20490;-83
2021/01/13 10:49:40;;;;;;;8.38;3.15;;;12.70;99.50;;;;;;4723318;30;20037;-83
2021/01/13 10:52:18;;;;;;;5.13;2.55;;;12.50;98.70;;;;;;4724204;30;20442;-82
2021/01/13 10:54:54;;;;;;;3.65;2.67;;;12.50;99.70;;;;;;4724382;30;20033;-83
2021/01/13 10:57:31;;;;;;;7.28;3.47;;;12.40;98.80;;;;;;4723526;30;20096;-83
2021/01/13 11:00:11;;;;;;;5.80;2.75;;;12.30;99.40;;;;;;4707724;30;20033;-83
2021/01/13 11:02:38;;;;;;;5.78;2.85;;;12.20;99.60;;;;;;4723522;30;20455;-83
2021/01/13 11:05:05;;;;;;;7.13;2.22;;;12.10;99.90;;;;;;4719780;30;20479;-83
2021/01/13 11:07:39;;;;;;;8.70;5.10;;;11.90;99.90;;;;;;4707972;30;20045;-83
2021/01/13 11:10:10;;;;;;;7.25;4.32;;;12.00;99.90;;;;;;4704771;30;20040;-84
2021/01/13 11:12:37;;;;;;;6.60;4.25;;;12.00;99.90;;;;;;4707465;30;20041;-81
2021/01/13 11:15:08;;;;;;;9.65;3.60;;;12.00;99.50;;;;;;4705555;30;20037;-82
2021/01/13 11:17:35;;;;;;;9.45;4.90;;;12.00;99.90;;;;;;4705176;30;20525;-82
2021/01/13 11:20:04;;;;;;;7.57;4.55;;;11.90;99.90;;;;;;4714303;30;20139;-83
2021/01/13 11:22:44;;;;;;;4.85;2.65;;;12.10;99.90;;;;;;4722741;30;20028;-82
2021/01/13 11:25:34;;;;;;;8.25;4.10;;;12.40;99.50;;;;;;4709376;30;20041;-82
2021/01/13 11:28:04;;;;;;;4.68;2.80;;;12.80;98.60;;;;;;4724729;30;20043;-83
2021/01/13 11:30:36;;;;;;;5.03;1.98;;;12.40;99.10;;;;;;4722547;30;20060;-82
2021/01/13 11:33:05;;;;;;;4.00;2.03;;;12.10;98.60;;;;;;4720242;30;20055;-83
2021/01/13 11:35:37;;;;;;;5.32;2.13;;;12.00;99.30;;;;;;4710683;30;20082;-83
2021/01/13 11:38:41;;;;;;;5.55;2.38;;;11.80;99.20;;;;;;4713509;30;20032;-83
2021/01/13 11:41:29;;;;;;;9.18;3.83;;;11.70;98.90;;;;;;4709560;30;20129;-84
2021/01/13 11:44:07;;;;;;;5.45;3.42;;;11.70;98.80;;;;;;4724743;30;20048;-82
2021/01/13 11:46:43;;;;;;;7.13;2.95;;;11.80;99.00;;;;;;4724067;30;20055;-82
2021/01/13 11:49:30;;;;;;;7.32;2.80;;;11.70;98.60;;;;;;4721366;30;20123;-82
2021/01/13 11:51:59;;;;;;;6.07;4.00;;;11.70;98.20;;;;;;4707040;30;20041;-82
2021/01/13 11:54:28;;;;;;;6.28;3.67;;;11.80;97.50;;;;;;4711444;30;20110;-83
2021/01/13 11:56:55;;;;;;;5.18;2.80;;;11.80;97.30;;;;;;4711080;30;20364;-82
2021/01/13 11:59:25;;;;;;;5.43;2.70;;;12.00;97.50;;;;;;4720575;30;20409;-83
2021/01/13 12:01:52;;;;;;;6.25;3.58;;;12.00;97.80;;;;;;4705802;30;20032;-82
2021/01/13 12:04:18;;;;;;;5.88;3.03;;;12.20;98.30;;;;;;4710438;30;20506;-83
2021/01/13 12:06:56;;;;;;;6.97;3.42;;;12.30;98.40;;;;;;4707688;30;20033;-82
2021/01/13 12:09:22;;;;;;;6.53;2.70;;;12.60;97.80;;;;;;4723171;30;20415;-84
2021/01/13 12:11:49;;;;;;;5.70;3.40;;;12.90;97.90;;;;;;4727044;30;20037;-83
2021/01/13 12:14:16;;;;;;;6.50;3.28;;;13.20;97.40;;;;;;4707417;30;20116;-83
2021/01/13 12:16:42;;;;;;;5.35;3.03;;;13.30;97.60;;;;;;4722746;30;20047;-83
2021/01/13 12:19:08;;;;;;;6.78;2.97;;;13.40;97.30;;;;;;4715974;30;20037;-83
2021/01/13 12:21:34;;;;;;;5.13;3.35;;;13.70;97.50;;;;;;4732082;30;20115;-83
2021/01/13 12:24:24;;;;;;;10.00;3.40;;;13.80;97.50;;;;;;4729658;30;20126;-83
2021/01/13 12:26:50;;;;;;;7.93;2.97;;;13.80;98.40;;;;;;4724139;30;20089;-83
2021/01/13 12:29:21;;;;;;;5.07;2.83;;;13.90;98.50;;;;;;4715491;30;20115;-83
2021/01/13 12:31:49;;;;;;;4.63;2.92;;;14.00;98.30;;;;;;4720708;30;20056;-83
2021/01/13 12:34:26;;;;;;;6.68;3.17;;;14.20;97.70;;;;;;4709605;30;20043;-83
2021/01/13 12:36:54;;;;;;;3.72;2.67;;;14.30;98.40;;;;;;4710316;30;20352;-83
2021/01/13 12:39:31;;;;;;;7.25;2.88;;;14.10;97.90;;;;;;4726828;30;20132;-83
2021/01/13 12:42:01;;;;;;;5.25;2.80;;;13.80;97.80;;;;;;4708943;30;20024;-83
2021/01/13 12:44:29;;;;;;;5.43;2.80;;;13.40;98.20;;;;;;4707625;30;20511;-83
2021/01/13 12:47:09;;;;;;;4.55;2.63;;;13.20;99.30;;;;;;4712343;30;20433;-84
2021/01/13 12:49:35;;;;;;;5.68;2.50;;;13.40;99.60;;;;;;4718624;30;20204;-83
2021/01/13 12:52:01;;;;;;;5.40;2.35;;;13.50;99.70;;;;;;4726147;30;20032;-84
2021/01/13 12:54:28;;;;;;;3.30;2.05;;;13.00;99.00;;;;;;4712359;30;20069;-83
2021/01/13 12:56:54;;;;;;;5.35;2.28;;;12.70;99.40;;;;;;4724091;30;20495;-83
2021/01/13 12:59:20;;;;;;;4.88;2.78;;;12.30;99.70;;;;;;4724357;30;20044;-83
2021/01/13 13:01:48;;;;;;;3.72;2.30;;;12.10;99.90;;;;;;4712593;30;20067;-83
2021/01/13 13:04:15;;;;;;;3.50;2.50;;;12.00;99.90;;;;;;4712155;30;20044;-83
2021/01/13 13:06:41;;;;;;;3.72;2.30;;;12.10;99.90;;;;;;4727721;30;20548;-83
2021/01/13 13:09:15;;;;;;;5.22;2.80;;;12.60;99.90;;;;;;4719322;30;20048;-80
2021/01/13 13:11:42;;;;;;;5.88;3.15;;;13.10;99.90;;;;;;4713337;30;20033;-80
2021/01/13 13:14:10;;;;;;;4.97;3.10;;;13.30;99.80;;;;;;4708642;30;20437;-82
2021/01/13 13:16:37;;;;;;;3.75;2.38;;;13.60;99.90;;;;;;4721287;30;20037;-82
2021/01/13 13:19:04;;;;;;;4.00;2.40;;;13.80;99.60;;;;;;4721807;30;20044;-83
2021/01/13 13:21:30;;;;;;;5.78;3.22;;;14.10;98.70;;;;;;4712145;30;20395;-84
2021/01/13 13:23:56;;;;;;;4.57;3.00;;;14.00;98.70;;;;;;4712420;30;20098;-83
2021/01/13 13:26:22;;;;;;;10.90;3.35;;;14.10;98.30;;;;;;4710695;30;20049;-84
2021/01/13 13:28:50;;;;;;;8.38;4.53;;;14.40;98.80;;;;;;4726827;30;20040;-83
2021/01/13 13:31:17;;;;;;;6.03;2.83;;;14.40;98.00;;;;;;4718183;30;20057;-81
2021/01/13 13:33:44;;;;;;;7.03;3.15;;;14.60;98.70;;;;;;4733189;30;20399;-81
2021/01/13 13:36:11;;;;;;;4.78;2.88;;;14.90;99.30;;;;;;4724503;30;20163;-81